Time;durP1;ratioP1;P1;durP2;ratioP2;P2;SDS_P1;SDS_P2;PMS_P1;PMS_P2;Temp;Humidity;BMP_temperature;BMP_pressure;BME280_temperature;BME280_humidity;BME280_pressure;Samples;Min_cycle;Max_cycle;Signal;HPM_P1;HPM_P2
2022/11/05 00:10:29;;;;;;;6.35;1.02;;;;;;;;;;4974036;28;20103;-75
2022/11/05 00:18:26;;;;;;;7.13;1.67;;;;;;;;;;4969192;28;20091;-77
2022/11/05 00:20:53;;;;;;;7.50;1.45;;;;;;;;;;4969267;28;20078;-74
2022/11/05 00:26:05;;;;;;;9.00;1.77;;;;;;;;;;4973518;28;20942;-76
2022/11/05 00:28:31;;;;;;;8.23;1.38;;;;;;;;;;4966071;28;20478;-75
2022/11/05 00:31:05;;;;;;;4.90;1.30;;;;;;;;;;4969533;28;20389;-75
2022/11/05 00:33:32;;;;;;;5.30;0.95;;;;;;;;;;4970574;28;20057;-75
2022/11/05 00:35:58;;;;;;;7.32;1.67;;;;;;;;;;4972792;28;20033;-75
2022/11/05 00:38:24;;;;;;;4.93;0.95;;;;;;;;;;4966662;28;20043;-75
2022/11/05 00:40:50;;;;;;;5.57;1.40;;;;;;;;;;4970339;28;20457;-75
2022/11/05 00:46:02;;;;;;;7.25;1.30;;;;;;;;;;4972736;28;20305;-75
2022/11/05 00:51:12;;;;;;;7.35;1.40;;;;;;;;;;4969586;28;20046;-74
2022/11/05 00:53:38;;;;;;;13.88;2.53;;;;;;;;;;4970641;28;20053;-74
2022/11/05 04:42:43;;;;;;;11.93;0.88;;;;;;;;;;5053510;28;20504;-77
2022/11/05 04:45:09;;;;;;;6.03;1.48;;;;;;;;;;5050363;28;20111;-82
2022/11/05 04:47:35;;;;;;;8.02;1.15;;;;;;;;;;5044333;28;20021;-82
2022/11/05 04:50:01;;;;;;;5.32;1.20;;;;;;;;;;5045868;28;20059;-83
2022/11/05 04:52:27;;;;;;;8.15;1.92;;;;;;;;;;5039100;28;20060;-75
2022/11/05 04:54:54;;;;;;;3.78;1.27;;;;;;;;;;5045817;28;20094;-78
2022/11/05 04:57:20;;;;;;;4.47;0.82;;;;;;;;;;5026015;28;20470;-78
2022/11/05 04:59:50;;;;;;;12.75;1.77;;;;;;;;;;5012972;28;20030;-74
2022/11/05 05:02:16;;;;;;;9.73;1.67;;;;;;;;;;5006956;28;20030;-78
2022/11/05 05:04:43;;;;;;;7.70;1.33;;;;;;;;;;5012809;28;20025;-77
2022/11/05 05:07:09;;;;;;;6.65;1.10;;;;;;;;;;5010958;28;20105;-77
2022/11/05 05:09:35;;;;;;;9.02;1.30;;;;;;;;;;5011409;28;20720;-82
2022/11/05 05:12:01;;;;;;;3.10;0.70;;;;;;;;;;5014065;28;20021;-82
2022/11/05 05:14:27;;;;;;;4.90;0.80;;;;;;;;;;5021788;28;20021;-85
2022/11/05 05:16:54;;;;;;;3.33;1.20;;;;;;;;;;5014222;28;20013;-82
2022/11/05 05:19:20;;;;;;;3.45;1.38;;;;;;;;;;5013103;28;20065;-75
2022/11/05 05:21:46;;;;;;;4.80;0.90;;;;;;;;;;5018829;28;20862;-76
2022/11/05 05:24:17;;;;;;;8.75;1.77;;;;;;;;;;5013878;28;20017;-82
2022/11/05 05:26:48;;;;;;;4.73;1.00;;;;;;;;;;5015007;28;20045;-75
2022/11/05 05:29:14;;;;;;;7.85;1.05;;;;;;;;;;5016303;28;20064;-76
2022/11/05 05:31:41;;;;;;;3.50;0.70;;;;;;;;;;5016175;28;20411;-83
2022/11/05 05:34:08;;;;;;;6.85;1.15;;;;;;;;;;5023566;28;20227;-78
2022/11/05 05:36:34;;;;;;;4.43;0.93;;;;;;;;;;5014905;28;20104;-77
2022/11/05 05:39:00;;;;;;;2.17;0.85;;;;;;;;;;5015581;28;20092;-80
2022/11/05 05:41:26;;;;;;;5.38;0.98;;;;;;;;;;5016942;28;20042;-77
2022/11/05 05:43:52;;;;;;;7.75;0.70;;;;;;;;;;5014701;28;20420;-76
2022/11/05 05:46:19;;;;;;;7.03;1.00;;;;;;;;;;5009967;28;20029;-77
2022/11/05 05:48:48;;;;;;;4.45;1.13;;;;;;;;;;5010543;28;20030;-76
2022/11/05 05:51:14;;;;;;;10.43;1.13;;;;;;;;;;5015969;28;20036;-77
2022/11/05 05:53:40;;;;;;;7.45;1.00;;;;;;;;;;5004644;28;20026;-78
2022/11/05 05:56:07;;;;;;;7.25;0.98;;;;;;;;;;5001455;28;20042;-79
2022/11/05 05:58:34;;;;;;;3.92;1.02;;;;;;;;;;4997538;28;20058;-74
2022/11/05 06:01:01;;;;;;;3.63;1.85;;;;;;;;;;5002892;28;20017;-83
2022/11/05 06:03:27;;;;;;;6.75;0.90;;;;;;;;;;5002305;28;20396;-79
2022/11/05 06:05:53;;;;;;;8.90;0.85;;;;;;;;;;5002576;28;20030;-81
2022/11/05 06:08:19;;;;;;;6.32;1.38;;;;;;;;;;5004799;28;20022;-79
2022/11/05 06:10:51;;;;;;;9.95;2.50;;;;;;;;;;4996703;28;20030;-83
2022/11/05 06:13:17;;;;;;;5.65;1.30;;;;;;;;;;5004394;28;20025;-78
2022/11/05 06:15:44;;;;;;;4.03;1.00;;;;;;;;;;4997481;28;20497;-78
2022/11/05 06:18:10;;;;;;;5.18;1.10;;;;;;;;;;4999734;28;20080;-80
2022/11/05 06:20:36;;;;;;;3.08;0.82;;;;;;;;;;4997951;28;20568;-77
2022/11/05 06:23:02;;;;;;;3.47;1.50;;;;;;;;;;5003083;28;20014;-84
2022/11/05 06:25:28;;;;;;;4.35;0.88;;;;;;;;;;4998785;28;20028;-83
2022/11/05 06:27:55;;;;;;;7.75;1.20;;;;;;;;;;4995164;28;20906;-79
2022/11/05 06:30:22;;;;;;;4.50;1.50;;;;;;;;;;5004347;28;20040;-84
2022/11/05 06:32:48;;;;;;;5.13;1.00;;;;;;;;;;4998526;28;20061;-77
2022/11/05 06:35:15;;;;;;;4.05;0.73;;;;;;;;;;5005654;28;20100;-83
2022/11/05 06:37:41;;;;;;;6.03;1.17;;;;;;;;;;5002728;28;20029;-77
2022/11/05 06:40:08;;;;;;;6.00;1.30;;;;;;;;;;4997331;28;20045;-82
2022/11/05 06:42:34;;;;;;;5.10;0.93;;;;;;;;;;4998604;28;20049;-85
2022/11/05 06:45:00;;;;;;;7.03;1.10;;;;;;;;;;5007090;28;20025;-84
2022/11/05 06:47:27;;;;;;;5.70;1.27;;;;;;;;;;5011873;28;20018;-87
2022/11/05 06:49:53;;;;;;;6.90;0.80;;;;;;;;;;5002840;28;20044;-88
2022/11/05 06:52:19;;;;;;;3.25;0.68;;;;;;;;;;5003897;28;20105;-83
2022/11/05 06:54:45;;;;;;;6.05;1.05;;;;;;;;;;5001512;28;20485;-81
2022/11/05 06:57:12;;;;;;;4.20;0.82;;;;;;;;;;5003582;28;20056;-80
2022/11/05 06:59:39;;;;;;;4.75;0.90;;;;;;;;;;5004527;28;20026;-84
2022/11/05 07:02:06;;;;;;;4.43;0.65;;;;;;;;;;5003196;28;20068;-84
2022/11/05 07:04:32;;;;;;;4.60;0.93;;;;;;;;;;4998558;28;20120;-73
2022/11/05 07:07:02;;;;;;;4.57;0.90;;;;;;;;;;4998774;28;20557;-76
2022/11/05 07:09:28;;;;;;;6.95;0.90;;;;;;;;;;4999951;28;20036;-74
2022/11/05 07:11:55;;;;;;;7.15;1.42;;;;;;;;;;5001085;28;20856;-77
2022/11/05 07:14:21;;;;;;;6.85;1.13;;;;;;;;;;5000525;28;20045;-75
2022/11/05 07:16:47;;;;;;;7.90;1.00;;;;;;;;;;5001442;28;20026;-74
2022/11/05 07:19:13;;;;;;;7.30;1.38;;;;;;;;;;5004567;28;20021;-76
2022/11/05 07:21:39;;;;;;;7.53;1.33;;;;;;;;;;5000680;28;20594;-74
2022/11/05 07:24:06;;;;;;;5.88;1.25;;;;;;;;;;5000309;28;20022;-80
2022/11/05 07:26:32;;;;;;;4.20;1.25;;;;;;;;;;4993174;28;20026;-74
2022/11/05 07:28:58;;;;;;;4.43;1.00;;;;;;;;;;4999871;28;20014;-75
2022/11/05 07:31:24;;;;;;;6.13;1.45;;;;;;;;;;4999467;28;20033;-74
2022/11/05 07:33:51;;;;;;;6.82;1.25;;;;;;;;;;5000827;28;20018;-76
2022/11/05 07:36:17;;;;;;;5.18;0.90;;;;;;;;;;4997656;28;20645;-79
2022/11/05 07:38:43;;;;;;;8.25;1.08;;;;;;;;;;4998602;28;20471;-78
2022/11/05 07:41:09;;;;;;;6.38;1.10;;;;;;;;;;5001647;28;20053;-78
2022/11/05 07:43:35;;;;;;;8.43;1.00;;;;;;;;;;4996772;28;20132;-74
2022/11/05 07:46:01;;;;;;;7.20;1.05;;;;;;;;;;5000047;28;20018;-74
2022/11/05 07:48:27;;;;;;;5.18;0.82;;;;;;;;;;5003762;28;20032;-76
2022/11/05 07:50:54;;;;;;;6.47;0.77;;;;;;;;;;5001218;28;20038;-76
2022/11/05 07:53:20;;;;;;;2.65;0.65;;;;;;;;;;4998667;28;20101;-74
2022/11/05 07:55:46;;;;;;;3.97;0.60;;;;;;;;;;4995499;28;20027;-74
2022/11/05 07:58:13;;;;;;;2.38;0.30;;;;;;;;;;4998058;28;20049;-80
2022/11/05 08:00:39;;;;;;;3.90;0.63;;;;;;;;;;4997918;28;20034;-73
2022/11/05 08:03:07;;;;;;;3.78;0.70;;;;;;;;;;4999752;28;20030;-81
2022/11/05 08:05:35;;;;;;;4.00;0.63;;;;;;;;;;5003352;28;20428;-81
2022/11/05 08:08:01;;;;;;;3.45;0.70;;;;;;;;;;5004009;28;20038;-74
2022/11/05 08:10:28;;;;;;;2.72;0.70;;;;;;;;;;5000427;28;20025;-74
2022/11/05 08:12:54;;;;;;;3.97;0.80;;;;;;;;;;4994458;28;20030;-73
2022/11/05 08:15:21;;;;;;;3.25;0.50;;;;;;;;;;4996546;28;20056;-78
2022/11/05 08:17:47;;;;;;;2.78;0.57;;;;;;;;;;4998260;28;20030;-74
2022/11/05 08:20:14;;;;;;;4.05;0.77;;;;;;;;;;4996728;28;20022;-79
2022/11/05 08:22:43;;;;;;;2.90;0.60;;;;;;;;;;5000140;28;20793;-74
2022/11/05 08:25:10;;;;;;;3.85;0.80;;;;;;;;;;5000825;28;21545;-80
2022/11/05 08:27:37;;;;;;;3.30;0.70;;;;;;;;;;4995245;28;20054;-74
2022/11/05 08:30:04;;;;;;;1.67;0.40;;;;;;;;;;4998367;28;20077;-76
2022/11/05 08:32:30;;;;;;;3.42;0.80;;;;;;;;;;4993661;28;20056;-79
2022/11/05 08:34:56;;;;;;;4.35;0.70;;;;;;;;;;5006141;28;20025;-80
2022/11/05 08:37:22;;;;;;;3.67;0.90;;;;;;;;;;4994947;28;20115;-74
2022/11/05 08:39:48;;;;;;;1.50;0.50;;;;;;;;;;4996353;28;20026;-74
2022/11/05 08:42:14;;;;;;;2.08;0.63;;;;;;;;;;4997991;28;20137;-75
2022/11/05 08:44:40;;;;;;;4.32;0.57;;;;;;;;;;5005291;28;20026;-78
2022/11/05 08:47:07;;;;;;;2.25;0.55;;;;;;;;;;4998789;28;20747;-74
2022/11/05 08:49:33;;;;;;;2.78;0.70;;;;;;;;;;4995087;28;20463;-78
2022/11/05 08:51:59;;;;;;;2.28;0.65;;;;;;;;;;4991569;28;20064;-74
2022/11/05 08:54:25;;;;;;;1.02;0.50;;;;;;;;;;5006920;28;20018;-75
2022/11/05 08:56:51;;;;;;;2.50;0.50;;;;;;;;;;4992141;28;20493;-73
2022/11/05 08:59:17;;;;;;;2.85;0.60;;;;;;;;;;4994803;28;20018;-77
2022/11/05 09:01:44;;;;;;;2.85;0.52;;;;;;;;;;4991057;28;20109;-76
2022/11/05 09:04:10;;;;;;;2.70;0.43;;;;;;;;;;4997235;28;20030;-74
2022/11/05 09:06:36;;;;;;;7.13;1.10;;;;;;;;;;4998837;28;20037;-74
2022/11/05 09:09:02;;;;;;;3.22;0.65;;;;;;;;;;4995923;28;20037;-75
2022/11/05 09:11:28;;;;;;;2.45;1.27;;;;;;;;;;5001924;28;20052;-77
2022/11/05 09:13:55;;;;;;;5.57;1.20;;;;;;;;;;5001828;28;20026;-78
2022/11/05 09:16:22;;;;;;;2.92;0.63;;;;;;;;;;4997875;28;20083;-74
2022/11/05 09:18:49;;;;;;;5.53;0.60;;;;;;;;;;4992386;28;20023;-74
2022/11/05 09:21:16;;;;;;;4.13;0.85;;;;;;;;;;4995490;28;20077;-75
2022/11/05 09:23:42;;;;;;;4.10;1.05;;;;;;;;;;4997756;28;20025;-81
2022/11/05 09:26:09;;;;;;;4.85;0.65;;;;;;;;;;4995347;28;20138;-74
2022/11/05 09:28:35;;;;;;;2.47;0.77;;;;;;;;;;4998712;28;20529;-77
2022/11/05 09:31:04;;;;;;;3.80;0.70;;;;;;;;;;4991396;28;20026;-77
2022/11/05 09:33:31;;;;;;;3.10;0.70;;;;;;;;;;5007492;28;20117;-77
2022/11/05 09:35:59;;;;;;;3.50;1.05;;;;;;;;;;4998318;28;20023;-75
2022/11/05 09:38:25;;;;;;;3.80;0.75;;;;;;;;;;5002854;28;20638;-76
2022/11/05 09:41:01;;;;;;;3.53;1.23;;;;;;;;;;4995908;28;20054;-74
2022/11/05 09:43:31;;;;;;;2.33;0.80;;;;;;;;;;5009785;28;20056;-84
2022/11/05 09:45:58;;;;;;;4.88;0.82;;;;;;;;;;5001778;28;20018;-74
2022/11/05 09:48:26;;;;;;;2.75;0.77;;;;;;;;;;4999623;28;20036;-75
2022/11/05 09:50:52;;;;;;;3.47;0.95;;;;;;;;;;4997569;28;20125;-75
2022/11/05 09:53:19;;;;;;;3.65;0.50;;;;;;;;;;5001173;28;20019;-75
2022/11/05 09:55:48;;;;;;;2.75;0.63;;;;;;;;;;4997398;28;20651;-75
2022/11/05 09:58:17;;;;;;;3.00;0.50;;;;;;;;;;4998918;28;20045;-81
2022/11/05 10:00:43;;;;;;;8.05;0.90;;;;;;;;;;5002804;28;20025;-77
2022/11/05 10:03:13;;;;;;;2.28;1.02;;;;;;;;;;4998417;28;20022;-75
2022/11/05 10:05:40;;;;;;;8.27;0.93;;;;;;;;;;4999058;28;20393;-73
2022/11/05 10:08:16;;;;;;;1.75;0.50;;;;;;;;;;4992967;28;20106;-78
2022/11/05 10:10:48;;;;;;;5.15;0.65;;;;;;;;;;5001682;28;20026;-74
2022/11/05 10:13:17;;;;;;;6.68;0.52;;;;;;;;;;4998885;28;20025;-77
2022/11/05 10:15:48;;;;;;;5.05;0.85;;;;;;;;;;5000972;28;20022;-77
2022/11/05 10:18:16;;;;;;;2.92;0.50;;;;;;;;;;4994149;28;20374;-75
2022/11/05 10:20:43;;;;;;;7.57;1.42;;;;;;;;;;5007538;28;20089;-80
2022/11/05 10:23:11;;;;;;;1.95;0.60;;;;;;;;;;5001428;28;20586;-77
2022/11/05 10:25:47;;;;;;;5.72;1.48;;;;;;;;;;4997890;28;20501;-75
2022/11/05 10:28:18;;;;;;;8.60;1.20;;;;;;;;;;5003205;28;20032;-84
2022/11/05 10:30:46;;;;;;;8.50;1.20;;;;;;;;;;5001836;28;20022;-74
2022/11/05 10:33:15;;;;;;;5.97;1.23;;;;;;;;;;5002850;28;20034;-76
2022/11/05 10:35:47;;;;;;;3.88;1.45;;;;;;;;;;5001072;28;20021;-84
2022/11/05 10:38:13;;;;;;;;;;;;;;;;;;5002873;28;20022;-80
2022/11/05 10:40:42;;;;;;;6.47;1.42;;;;;;;;;;4999454;28;20390;-76
2022/11/05 10:43:14;;;;;;;4.90;1.40;;;;;;;;;;4996666;28;20109;-76
2022/11/05 10:45:54;;;;;;;7.47;1.52;;;;;;;;;;4998145;28;20609;-73
2022/11/05 10:48:28;;;;;;;3.30;0.90;;;;;;;;;;4998501;28;20049;-75
2022/11/05 10:50:54;;;;;;;6.60;0.98;;;;;;;;;;5003272;28;20022;-82
2022/11/05 10:53:23;;;;;;;3.30;0.82;;;;;;;;;;5000107;28;20376;-74
2022/11/05 10:55:50;;;;;;;5.00;1.00;;;;;;;;;;4991496;28;20022;-81
2022/11/05 10:58:16;;;;;;;6.80;1.10;;;;;;;;;;5002550;28;20633;-75
2022/11/05 11:00:43;;;;;;;8.43;0.90;;;;;;;;;;5002509;28;20300;-77
2022/11/05 11:03:28;;;;;;;2.67;0.60;;;;;;;;;;4997049;28;20022;-76
2022/11/05 11:05:59;;;;;;;2.97;0.75;;;;;;;;;;4996881;28;20127;-74
2022/11/05 11:08:26;;;;;;;2.75;0.30;;;;;;;;;;5001155;28;20050;-74
2022/11/05 11:10:54;;;;;;;1.10;0.40;;;;;;;;;;5002748;28;20041;-77
2022/11/05 11:13:22;;;;;;;2.28;0.50;;;;;;;;;;4998086;28;20083;-76
2022/11/05 11:15:49;;;;;;;1.38;0.30;;;;;;;;;;4999617;28;20486;-82
2022/11/05 11:18:37;;;;;;;1.38;0.30;;;;;;;;;;4999550;28;20032;-75
2022/11/05 11:21:14;;;;;;;1.88;0.65;;;;;;;;;;4996334;28;20026;-77
2022/11/05 11:23:41;;;;;;;0.68;0.22;;;;;;;;;;4999366;28;20061;-76
2022/11/05 11:32:18;;;;;;;3.72;0.75;;;;;;;;;;5021477;28;20056;-90
2022/11/05 11:34:45;;;;;;;2.95;0.50;;;;;;;;;;5039692;28;20025;-89
2022/11/05 11:37:17;;;;;;;2.30;0.50;;;;;;;;;;5025558;28;20563;-88
2022/11/05 11:39:45;;;;;;;7.15;0.80;;;;;;;;;;5040628;28;20021;-89
2022/11/05 11:42:19;;;;;;;6.90;1.38;;;;;;;;;;5022258;28;20120;-89
2022/11/05 11:44:46;;;;;;;3.35;0.60;;;;;;;;;;5039585;28;20025;-88
2022/11/05 11:47:15;;;;;;;5.00;0.90;;;;;;;;;;5018069;28;20277;-87
2022/11/05 12:06:38;;;;;;;5.88;1.15;;;;;;;;;;5171288;27;20421;-79
2022/11/05 12:09:04;;;;;;;7.95;1.20;;;;;;;;;;5143767;27;20431;-77
2022/11/05 12:11:35;;;;;;;2.95;0.80;;;;;;;;;;5169656;27;20019;-77
2022/11/05 12:59:22;;;;;;;6.80;1.27;;;;;;;;;;6162521;22;1780055;-74
2022/11/05 13:02:02;;;;;;;2.67;0.60;;;;;;;;;;6235673;23;20046;-74
2022/11/05 13:04:32;;;;;;;2.67;0.63;;;;;;;;;;6236840;23;20083;-76
2022/11/05 13:06:58;;;;;;;1.25;0.50;;;;;;;;;;6235382;23;20038;-76
2022/11/05 13:09:28;;;;;;;2.15;0.75;;;;;;;;;;6234524;23;20012;-77
2022/11/05 13:11:56;;;;;;;1.48;0.70;;;;;;;;;;6233171;23;20035;-76
2022/11/05 13:14:33;;;;;;;2.60;0.75;;;;;;;;;;6235583;23;20011;-76
2022/11/05 13:17:04;;;;;;;2.13;0.60;;;;;;;;;;6236449;23;20103;-75
2022/11/05 13:19:31;;;;;;;10.48;2.95;;;;;;;;;;6233392;23;20339;-75
2022/11/05 13:22:15;;;;;;;5.68;1.90;;;;;;;;;;6236692;23;20380;-76
2022/11/05 13:24:48;;;;;;;2.40;0.80;;;;;;;;;;6235178;23;20281;-76
2022/11/05 13:27:14;;;;;;;1.67;0.50;;;;;;;;;;6235220;23;20040;-77
2022/11/05 13:29:47;;;;;;;8.63;0.70;;;;;;;;;;6236754;23;20075;-82
2022/11/05 13:32:21;;;;;;;1.10;0.40;;;;;;;;;;6236825;23;20011;-75
2022/11/05 13:34:47;;;;;;;2.80;0.80;;;;;;;;;;6236754;23;20067;-77
2022/11/05 13:40:05;;;;;;;2.13;0.45;;;;;;;;;;6233826;23;20155;-77
2022/11/05 13:42:51;;;;;;;0.45;0.30;;;;;;;;;;6235523;23;20467;-77
2022/11/05 13:45:29;;;;;;;1.88;0.40;;;;;;;;;;6210351;23;20227;-76
2022/11/05 13:48:14;;;;;;;5.43;0.50;;;;;;;;;;6235834;23;20008;-77
2022/11/05 13:50:40;;;;;;;7.10;0.80;;;;;;;;;;6233286;23;20119;-76
2022/11/05 13:53:18;;;;;;;4.63;0.63;;;;;;;;;;6234661;23;20003;-77
2022/11/05 13:55:54;;;;;;;3.63;1.20;;;;;;;;;;6235442;23;20395;-76
2022/11/05 13:58:39;;;;;;;2.88;0.60;;;;;;;;;;6206667;23;20464;-75
2022/11/05 14:01:23;;;;;;;2.78;0.80;;;;;;;;;;6226566;23;20083;-76
2022/11/05 14:03:50;;;;;;;4.95;0.90;;;;;;;;;;6202309;23;20449;-77
2022/11/05 14:06:25;;;;;;;4.55;0.77;;;;;;;;;;6228194;23;19996;-77
2022/11/05 14:08:51;;;;;;;2.60;0.70;;;;;;;;;;6201289;23;20294;-76
2022/11/05 14:11:18;;;;;;;2.35;0.65;;;;;;;;;;6176646;23;20004;-76
2022/11/05 14:13:45;;;;;;;26.10;2.28;;;;;;;;;;6227141;23;20039;-76
2022/11/05 14:16:21;;;;;;;7.10;1.00;;;;;;;;;;6228853;23;20011;-76
2022/11/05 14:18:52;;;;;;;7.30;0.98;;;;;;;;;;6227907;23;20058;-76
2022/11/05 14:21:27;;;;;;;6.85;0.90;;;;;;;;;;6226937;23;20008;-75
2022/11/05 14:23:54;;;;;;;4.07;0.68;;;;;;;;;;6226714;23;20004;-76
2022/11/05 14:26:20;;;;;;;6.90;0.82;;;;;;;;;;6228000;23;20036;-76
2022/11/05 14:28:51;;;;;;;2.70;0.82;;;;;;;;;;6227145;23;20016;-75
2022/11/05 14:31:21;;;;;;;6.22;0.80;;;;;;;;;;6227620;23;20000;-75
2022/11/05 14:33:55;;;;;;;4.05;0.80;;;;;;;;;;6228672;23;20007;-75
2022/11/05 14:36:21;;;;;;;2.70;0.60;;;;;;;;;;6226176;23;20083;-75
2022/11/05 14:38:51;;;;;;;2.95;0.80;;;;;;;;;;6228814;23;20080;-75
2022/11/05 14:41:18;;;;;;;6.15;0.88;;;;;;;;;;6227424;23;20107;-76
2022/11/05 14:43:47;;;;;;;4.22;0.80;;;;;;;;;;6175841;23;20047;-76
2022/11/05 14:46:13;;;;;;;3.67;0.80;;;;;;;;;;6227954;23;20710;-77
2022/11/05 14:48:43;;;;;;;2.22;0.68;;;;;;;;;;6226094;23;20020;-77
2022/11/05 14:51:19;;;;;;;2.50;0.70;;;;;;;;;;6200112;23;20004;-77
2022/11/05 14:53:45;;;;;;;5.88;1.30;;;;;;;;;;6227397;23;20078;-76
2022/11/05 14:56:13;;;;;;;3.03;0.85;;;;;;;;;;6227646;23;20076;-77
2022/11/05 14:58:40;;;;;;;5.00;0.60;;;;;;;;;;6228966;22;20060;-77
2022/11/05 15:01:26;;;;;;;3.83;0.70;;;;;;;;;;6225409;23;20000;-77
2022/11/05 15:04:11;;;;;;;4.72;0.82;;;;;;;;;;6227164;23;20517;-76
2022/11/05 15:06:37;;;;;;;0.63;0.52;;;;;;;;;;6228044;23;20069;-76
2022/11/05 15:09:09;;;;;;;2.45;1.10;;;;;;;;;;6228015;23;20345;-76
2022/11/05 15:11:37;;;;;;;4.10;1.25;;;;;;;;;;6226201;23;19996;-76
2022/11/05 15:14:16;;;;;;;6.13;0.90;;;;;;;;;;6227874;23;20138;-76
2022/11/05 15:16:43;;;;;;;1.70;0.60;;;;;;;;;;6228028;23;20229;-76
2022/11/05 15:19:39;;;;;;;4.07;1.25;;;;;;;;;;6227807;23;20007;-76
2022/11/05 15:22:09;;;;;;;3.30;1.55;;;;;;;;;;6176249;23;20103;-75
2022/11/05 15:24:36;;;;;;;4.45;1.17;;;;;;;;;;6226092;23;20008;-75
2022/11/05 15:27:19;;;;;;;6.63;1.08;;;;;;;;;;6226702;23;20012;-77
2022/11/05 15:29:45;;;;;;;2.97;0.90;;;;;;;;;;6224763;23;20000;-77
2022/11/05 15:32:19;;;;;;;5.63;0.90;;;;;;;;;;6228202;23;20334;-75
2022/11/05 15:34:52;;;;;;;3.03;0.65;;;;;;;;;;6226887;23;20586;-75
2022/11/05 15:37:25;;;;;;;4.88;1.00;;;;;;;;;;6227820;23;20075;-75
2022/11/05 15:39:53;;;;;;;6.15;1.00;;;;;;;;;;6225343;23;20320;-75
2022/11/05 15:42:23;;;;;;;5.05;1.17;;;;;;;;;;6227848;23;20066;-75
2022/11/05 15:44:49;;;;;;;3.92;1.10;;;;;;;;;;6226514;23;20163;-81
2022/11/05 15:47:23;;;;;;;4.40;1.15;;;;;;;;;;6227968;23;20004;-75
2022/11/05 15:50:03;;;;;;;3.97;0.88;;;;;;;;;;6227171;23;20054;-75
2022/11/05 15:52:35;;;;;;;5.00;0.65;;;;;;;;;;6226404;23;20004;-76
2022/11/05 15:55:13;;;;;;;11.57;1.00;;;;;;;;;;6226936;23;20054;-76
2022/11/05 15:57:57;;;;;;;7.10;0.80;;;;;;;;;;6199963;23;20302;-75
2022/11/05 16:00:25;;;;;;;4.57;0.70;;;;;;;;;;6228023;23;20046;-76
2022/11/05 16:02:55;;;;;;;4.05;0.70;;;;;;;;;;6225940;23;20010;-76
2022/11/05 16:05:22;;;;;;;11.30;1.67;;;;;;;;;;6226455;23;20035;-76
2022/11/05 16:07:48;;;;;;;2.58;0.70;;;;;;;;;;6226376;23;20016;-77
2022/11/05 16:10:19;;;;;;;2.95;1.08;;;;;;;;;;6200715;23;20037;-75
2022/11/05 16:12:45;;;;;;;5.10;1.33;;;;;;;;;;6227682;23;20008;-76
2022/11/05 16:15:11;;;;;;;4.10;1.05;;;;;;;;;;6225239;23;20046;-75
2022/11/05 16:17:37;;;;;;;6.45;1.30;;;;;;;;;;6226751;23;20004;-77
2022/11/05 16:20:17;;;;;;;6.22;1.08;;;;;;;;;;6228097;23;20071;-76
2022/11/05 16:22:44;;;;;;;3.58;1.20;;;;;;;;;;6227498;23;20087;-75
2022/11/05 16:25:24;;;;;;;4.88;1.02;;;;;;;;;;6225872;23;20008;-75
2022/11/05 16:27:50;;;;;;;2.92;0.68;;;;;;;;;;6226788;23;20019;-77
2022/11/05 16:30:17;;;;;;;4.38;0.80;;;;;;;;;;6225239;23;20011;-76
2022/11/05 16:32:43;;;;;;;3.17;0.80;;;;;;;;;;6226984;23;20039;-78
2022/11/05 16:35:20;;;;;;;5.07;0.93;;;;;;;;;;6227708;23;20368;-77
2022/11/05 16:37:46;;;;;;;6.97;1.20;;;;;;;;;;6225172;23;20023;-75
2022/11/05 16:40:13;;;;;;;4.85;1.30;;;;;;;;;;6227030;23;20031;-75
2022/11/05 16:42:40;;;;;;;1.40;0.60;;;;;;;;;;6227100;23;20466;-76
2022/11/05 16:45:09;;;;;;;4.75;1.30;;;;;;;;;;6227383;23;20428;-75
2022/11/05 16:47:35;;;;;;;7.72;1.10;;;;;;;;;;6225113;23;20496;-76
2022/11/05 16:50:01;;;;;;;5.60;1.08;;;;;;;;;;6227372;23;20091;-76
2022/11/05 16:52:28;;;;;;;6.35;1.00;;;;;;;;;;6226748;23;20031;-76
2022/11/05 16:54:54;;;;;;;5.20;0.80;;;;;;;;;;6199876;23;20074;-75
2022/11/05 16:57:23;;;;;;;4.93;0.57;;;;;;;;;;6227193;22;20521;-76
2022/11/05 16:59:49;;;;;;;5.07;0.90;;;;;;;;;;6200254;23;20411;-76
2022/11/05 17:02:15;;;;;;;5.03;0.93;;;;;;;;;;6224906;23;20001;-76
2022/11/05 17:04:41;;;;;;;1.38;0.63;;;;;;;;;;6228271;23;20000;-75
2022/11/05 17:07:07;;;;;;;3.33;0.90;;;;;;;;;;6227070;23;20012;-76
2022/11/05 17:09:33;;;;;;;4.90;0.70;;;;;;;;;;6227265;23;20071;-76
2022/11/05 17:12:01;;;;;;;3.45;0.50;;;;;;;;;;6225914;23;20564;-75
2022/11/05 17:14:27;;;;;;;3.53;0.70;;;;;;;;;;6225929;23;20426;-75
2022/11/05 17:16:53;;;;;;;3.40;0.70;;;;;;;;;;6227468;23;20004;-75
2022/11/05 17:19:20;;;;;;;5.40;1.77;;;;;;;;;;6227365;23;20590;-75
2022/11/05 17:21:46;;;;;;;4.63;0.85;;;;;;;;;;6200224;23;20416;-76
2022/11/05 17:24:12;;;;;;;5.60;0.80;;;;;;;;;;6225932;23;20075;-75
2022/11/05 17:26:38;;;;;;;5.60;1.17;;;;;;;;;;6227233;23;20059;-76
2022/11/05 17:29:04;;;;;;;2.58;0.60;;;;;;;;;;6225246;23;20129;-75
2022/11/05 17:31:30;;;;;;;3.88;0.60;;;;;;;;;;6226003;23;20073;-75
2022/11/05 17:33:57;;;;;;;4.88;1.50;;;;;;;;;;6199781;23;20109;-76
2022/11/05 17:36:26;;;;;;;6.00;1.95;;;;;;;;;;6227481;23;20058;-75
2022/11/05 17:38:52;;;;;;;6.47;1.20;;;;;;;;;;6228171;23;20004;-79
2022/11/05 17:41:20;;;;;;;7.13;0.90;;;;;;;;;;6200827;23;20429;-79
2022/11/05 17:43:46;;;;;;;6.90;1.20;;;;;;;;;;6199500;23;20079;-78
2022/11/05 17:46:16;;;;;;;4.13;0.95;;;;;;;;;;6201197;23;20059;-79
2022/11/05 17:48:43;;;;;;;4.47;0.80;;;;;;;;;;6200805;23;20098;-78
2022/11/05 17:51:10;;;;;;;4.57;0.85;;;;;;;;;;6200242;23;20015;-79
2022/11/05 17:53:37;;;;;;;5.30;1.23;;;;;;;;;;6228950;23;20008;-79
2022/11/05 17:56:07;;;;;;;2.78;0.60;;;;;;;;;;6202181;23;20004;-79
2022/11/05 17:58:33;;;;;;;5.53;0.80;;;;;;;;;;6227914;22;20436;-79
2022/11/05 18:01:00;;;;;;;4.50;0.70;;;;;;;;;;6228941;23;20004;-78
2022/11/05 18:03:26;;;;;;;7.32;0.80;;;;;;;;;;6200144;23;20008;-78
2022/11/05 18:05:52;;;;;;;3.33;0.90;;;;;;;;;;6228620;23;20028;-78
2022/11/05 18:08:18;;;;;;;2.65;0.50;;;;;;;;;;6202113;23;20189;-78
2022/11/05 18:10:44;;;;;;;3.17;0.68;;;;;;;;;;6201768;23;20039;-78
2022/11/05 18:13:10;;;;;;;3.17;0.82;;;;;;;;;;6202968;23;20008;-78
2022/11/05 18:15:39;;;;;;;2.22;0.60;;;;;;;;;;6201810;23;20000;-78
2022/11/05 18:18:06;;;;;;;0.88;0.30;;;;;;;;;;6199742;23;20012;-78
2022/11/05 18:20:32;;;;;;;2.00;0.55;;;;;;;;;;6201788;23;20090;-79
2022/11/05 18:22:59;;;;;;;4.22;0.52;;;;;;;;;;6201337;23;20075;-78
2022/11/05 18:25:25;;;;;;;2.17;0.50;;;;;;;;;;6227868;23;20019;-78
2022/11/05 18:27:51;;;;;;;2.03;0.50;;;;;;;;;;6201612;23;20118;-78
2022/11/05 18:30:17;;;;;;;0.98;0.40;;;;;;;;;;6201331;23;20004;-78
2022/11/05 18:32:44;;;;;;;2.25;0.50;;;;;;;;;;6226610;23;20528;-78
2022/11/05 18:35:10;;;;;;;1.92;0.70;;;;;;;;;;6202141;23;20012;-78
2022/11/05 18:37:37;;;;;;;6.78;0.70;;;;;;;;;;6228681;23;20269;-78
2022/11/05 18:40:04;;;;;;;3.08;0.55;;;;;;;;;;6228438;23;20008;-78
2022/11/05 18:42:30;;;;;;;2.50;0.88;;;;;;;;;;6228365;23;20008;-79
2022/11/05 18:44:56;;;;;;;1.48;0.50;;;;;;;;;;6228008;23;19996;-78
2022/11/05 18:47:22;;;;;;;2.25;0.95;;;;;;;;;;6226488;23;20532;-78
2022/11/05 18:49:48;;;;;;;4.93;1.17;;;;;;;;;;6201708;23;20031;-77
2022/11/05 18:52:15;;;;;;;4.32;0.70;;;;;;;;;;6227543;23;20010;-79
2022/11/05 18:54:41;;;;;;;5.40;0.75;;;;;;;;;;6228112;23;20452;-78
2022/11/05 18:57:08;;;;;;;2.80;0.77;;;;;;;;;;6227800;22;20000;-76
2022/11/05 18:59:34;;;;;;;2.58;0.70;;;;;;;;;;6226250;23;20000;-79
2022/11/05 19:02:02;;;;;;;4.70;0.90;;;;;;;;;;6201090;23;20036;-80
2022/11/05 19:04:29;;;;;;;4.70;1.52;;;;;;;;;;6201008;23;20031;-78
2022/11/05 19:06:55;;;;;;;2.80;0.50;;;;;;;;;;6201017;23;20401;-80
2022/11/05 19:09:21;;;;;;;4.35;1.10;;;;;;;;;;6201088;23;20081;-80
2022/11/05 19:11:48;;;;;;;4.43;0.68;;;;;;;;;;6201116;23;20099;-80
2022/11/05 19:14:14;;;;;;;3.20;0.90;;;;;;;;;;6200129;23;20071;-80
2022/11/05 19:16:40;;;;;;;5.95;0.85;;;;;;;;;;6227752;23;20004;-78
2022/11/05 19:19:07;;;;;;;2.75;0.70;;;;;;;;;;6201033;23;20125;-79
2022/11/05 19:21:33;;;;;;;4.35;0.70;;;;;;;;;;6201529;23;20008;-80
2022/11/05 19:24:00;;;;;;;3.97;1.35;;;;;;;;;;6197706;23;20210;-77
2022/11/05 19:26:26;;;;;;;2.88;1.05;;;;;;;;;;6228603;23;20007;-78
2022/11/05 19:28:52;;;;;;;7.60;1.00;;;;;;;;;;6200884;23;20594;-80
2022/11/05 19:31:20;;;;;;;8.40;0.98;;;;;;;;;;6228183;23;20125;-80
2022/11/05 19:33:47;;;;;;;3.90;1.00;;;;;;;;;;6228001;23;20008;-79
2022/11/05 19:36:14;;;;;;;5.70;1.08;;;;;;;;;;6198881;23;20351;-79
2022/11/05 19:38:40;;;;;;;3.42;0.75;;;;;;;;;;6228166;23;20072;-79
2022/11/05 19:41:14;;;;;;;3.95;0.85;;;;;;;;;;6201266;23;20425;-80
2022/11/05 19:43:41;;;;;;;2.83;0.55;;;;;;;;;;6228259;23;20008;-79
2022/11/05 19:46:11;;;;;;;1.77;0.40;;;;;;;;;;6226252;23;20000;-81
2022/11/05 19:48:38;;;;;;;2.67;0.70;;;;;;;;;;6200768;23;20026;-80
2022/11/05 19:51:08;;;;;;;3.30;0.50;;;;;;;;;;6199804;23;20004;-82
2022/11/05 19:53:35;;;;;;;3.65;0.70;;;;;;;;;;6200719;23;20502;-82
2022/11/05 19:56:05;;;;;;;4.32;0.88;;;;;;;;;;6227728;23;20079;-82
2022/11/05 19:58:31;;;;;;;3.05;0.52;;;;;;;;;;6199442;23;20020;-79
2022/11/05 20:00:58;;;;;;;7.70;1.85;;;;;;;;;;6226651;23;20130;-80
2022/11/05 20:03:24;;;;;;;2.67;0.90;;;;;;;;;;6227274;23;20004;-77
2022/11/05 20:05:50;;;;;;;2.40;1.00;;;;;;;;;;6227495;23;20004;-77
2022/11/05 20:08:16;;;;;;;5.28;0.90;;;;;;;;;;6225373;23;20428;-76
2022/11/05 20:10:42;;;;;;;5.03;1.35;;;;;;;;;;6227288;23;20004;-76